Time;durP1;ratioP1;P1;durP2;ratioP2;P2;SDS_P1;SDS_P2;PMS_P1;PMS_P2;Temp;Humidity;BMP_temperature;BMP_pressure;BME280_temperature;BME280_humidity;BME280_pressure;Samples;Min_cycle;Max_cycle;Signal;HPM_P1;HPM_P2
2024/01/26 00:01:39;;;;;;;21.17;8.27;;;9.20;99.90;;;;;;5054205;28;20047;-52
2024/01/26 00:04:05;;;;;;;23.17;9.30;;;9.20;99.90;;;;;;5053870;28;20470;-52
2024/01/26 00:06:30;;;;;;;21.07;8.60;;;9.30;99.90;;;;;;5053899;28;20029;-50
2024/01/26 00:08:56;;;;;;;23.90;9.53;;;9.20;99.90;;;;;;5053545;28;20098;-50
2024/01/26 00:11:23;;;;;;;20.47;8.87;;;9.20;99.90;;;;;;5054201;28;20067;-49
2024/01/26 00:13:48;;;;;;;18.83;8.33;;;9.30;99.90;;;;;;5053606;28;20025;-50
2024/01/26 00:16:14;;;;;;;23.20;9.43;;;9.20;99.90;;;;;;5055012;28;20362;-54
2024/01/26 00:18:40;;;;;;;21.30;8.80;;;9.20;99.90;;;;;;5053806;28;20088;-54
2024/01/26 00:21:07;;;;;;;23.23;9.30;;;9.20;99.90;;;;;;5053840;28;20080;-53
2024/01/26 00:23:32;;;;;;;19.67;8.50;;;9.20;99.90;;;;;;5053400;28;20466;-54
2024/01/26 00:25:58;;;;;;;19.90;9.40;;;9.30;99.90;;;;;;5053624;28;20090;-54
2024/01/26 00:28:24;;;;;;;21.53;8.43;;;9.30;99.90;;;;;;5053285;28;20032;-54
2024/01/26 00:30:49;;;;;;;20.90;9.53;;;9.30;99.90;;;;;;5053722;28;20029;-54
2024/01/26 00:33:15;;;;;;;27.27;10.20;;;9.30;99.90;;;;;;5053456;28;20105;-53
2024/01/26 00:35:40;;;;;;;23.27;8.80;;;9.20;99.90;;;;;;5052131;28;20087;-54
2024/01/26 00:38:06;;;;;;;20.30;8.63;;;9.30;99.90;;;;;;5052635;28;20037;-52
2024/01/26 00:40:32;;;;;;;20.07;8.57;;;9.30;99.90;;;;;;5053612;28;20029;-54
2024/01/26 00:42:57;;;;;;;21.33;8.20;;;9.20;99.90;;;;;;5053201;28;20033;-53
2024/01/26 00:45:23;;;;;;;23.03;8.57;;;9.20;99.90;;;;;;5052156;28;20048;-54
2024/01/26 00:47:48;;;;;;;20.10;8.60;;;9.20;99.90;;;;;;5053390;28;20029;-50
2024/01/26 00:50:14;;;;;;;20.37;8.97;;;9.30;99.90;;;;;;5053641;28;20024;-50
2024/01/26 00:52:40;;;;;;;17.97;8.60;;;9.30;99.90;;;;;;5053722;28;20086;-50
2024/01/26 00:55:06;;;;;;;22.33;9.43;;;9.20;99.90;;;;;;5053459;28;20389;-50
2024/01/26 00:57:32;;;;;;;19.23;7.90;;;9.30;99.90;;;;;;5053256;28;20379;-50
2024/01/26 00:59:59;;;;;;;19.67;8.27;;;9.30;99.90;;;;;;5053307;28;20127;-50
2024/01/26 01:02:25;;;;;;;20.03;7.93;;;9.20;99.90;;;;;;5053457;28;20108;-54
2024/01/26 01:04:51;;;;;;;21.40;8.40;;;9.30;99.90;;;;;;5053332;28;20434;-54
2024/01/26 01:07:16;;;;;;;18.90;8.73;;;9.30;99.90;;;;;;5052969;28;20037;-54
2024/01/26 01:09:42;;;;;;;16.63;7.50;;;9.30;99.90;;;;;;5052693;28;20095;-53
2024/01/26 01:12:07;;;;;;;19.07;8.30;;;9.20;99.90;;;;;;5053056;28;20099;-54
2024/01/26 01:14:36;;;;;;;23.47;9.47;;;9.30;99.90;;;;;;5052722;28;20063;-54
2024/01/26 01:17:04;;;;;;;19.75;7.68;;;9.20;99.90;;;;;;5052843;28;20075;-54
2024/01/26 01:19:30;;;;;;;24.07;8.37;;;9.20;99.90;;;;;;5052315;28;20129;-51
2024/01/26 01:21:56;;;;;;;21.10;8.50;;;9.20;99.90;;;;;;5052690;28;20124;-50
2024/01/26 01:24:22;;;;;;;18.10;8.03;;;9.20;99.90;;;;;;5052480;28;20057;-53
2024/01/26 01:26:47;;;;;;;17.10;7.83;;;9.20;99.90;;;;;;5052357;28;20438;-54
2024/01/26 01:29:13;;;;;;;21.07;7.63;;;9.20;99.90;;;;;;5052206;28;20040;-54
2024/01/26 01:31:39;;;;;;;19.70;8.80;;;9.20;99.90;;;;;;5052692;28;20048;-54
2024/01/26 01:34:05;;;;;;;19.70;8.50;;;9.30;99.90;;;;;;5052091;28;20029;-54
2024/01/26 01:36:31;;;;;;;19.97;8.90;;;9.30;99.90;;;;;;5052168;28;20029;-54
2024/01/26 01:38:56;;;;;;;22.47;9.17;;;9.30;99.90;;;;;;5052142;28;20127;-54
2024/01/26 01:41:22;;;;;;;19.83;9.13;;;9.20;99.90;;;;;;5052328;28;20374;-51
2024/01/26 01:43:55;;;;;;;20.03;8.87;;;9.30;99.90;;;;;;5051898;28;20048;-54
2024/01/26 01:46:21;;;;;;;19.10;8.47;;;9.20;99.90;;;;;;5052189;28;20358;-50
2024/01/26 01:48:49;;;;;;;22.30;9.40;;;9.30;99.90;;;;;;5051678;28;20033;-55
2024/01/26 01:51:15;;;;;;;20.67;8.53;;;9.20;99.90;;;;;;5051181;28;20025;-54
2024/01/26 01:53:41;;;;;;;27.63;10.07;;;9.30;99.90;;;;;;5051623;28;20036;-53
2024/01/26 01:56:11;;;;;;;18.90;8.67;;;9.40;99.90;;;;;;5051936;28;20543;-55
2024/01/26 01:58:38;;;;;;;22.60;8.83;;;9.40;99.90;;;;;;5050367;28;20064;-55
2024/01/26 02:01:04;;;;;;;22.67;9.40;;;9.40;99.90;;;;;;5051917;28;20045;-55
2024/01/26 02:03:30;;;;;;;25.27;9.20;;;9.40;99.90;;;;;;5051436;28;20132;-55
2024/01/26 02:05:56;;;;;;;25.70;9.83;;;9.40;99.90;;;;;;5051854;28;20044;-52
2024/01/26 02:08:21;;;;;;;22.63;9.20;;;9.40;99.90;;;;;;5051740;28;20040;-50
2024/01/26 02:10:47;;;;;;;22.03;9.50;;;9.40;99.90;;;;;;5052076;28;20021;-54
2024/01/26 02:13:12;;;;;;;21.83;9.70;;;9.50;99.90;;;;;;5049934;28;20070;-55
2024/01/26 02:15:38;;;;;;;23.40;9.50;;;9.50;99.90;;;;;;5051518;28;20037;-54
2024/01/26 02:18:05;;;;;;;19.93;9.17;;;9.50;99.90;;;;;;5051383;28;20116;-50
2024/01/26 02:20:30;;;;;;;23.57;9.87;;;9.50;99.90;;;;;;5050215;28;20033;-54
2024/01/26 02:22:56;;;;;;;25.10;9.80;;;9.50;99.90;;;;;;5051248;28;20043;-55
2024/01/26 02:25:22;;;;;;;27.73;10.10;;;9.50;99.90;;;;;;5051186;28;20482;-55
2024/01/26 02:27:47;;;;;;;23.63;10.30;;;9.60;99.90;;;;;;5050925;28;20028;-55
2024/01/26 02:30:13;;;;;;;25.17;9.37;;;9.60;99.90;;;;;;5051160;28;20546;-55
2024/01/26 02:32:39;;;;;;;20.50;9.47;;;9.60;99.90;;;;;;5050971;28;20551;-54
2024/01/26 02:35:05;;;;;;;22.53;9.50;;;9.50;99.90;;;;;;5051044;28;20033;-55
2024/01/26 02:37:30;;;;;;;22.80;9.10;;;9.60;99.90;;;;;;5050789;28;20033;-55
2024/01/26 02:39:57;;;;;;;24.30;9.43;;;9.60;99.90;;;;;;5050542;28;20075;-55
2024/01/26 02:42:23;;;;;;;19.60;8.63;;;9.60;99.90;;;;;;5050959;28;20035;-54
2024/01/26 02:44:48;;;;;;;18.83;8.90;;;9.60;99.90;;;;;;5050650;28;20103;-53
2024/01/26 02:47:14;;;;;;;18.87;8.43;;;9.60;99.90;;;;;;5050461;28;20078;-55
2024/01/26 02:49:44;;;;;;;22.13;9.03;;;9.60;99.90;;;;;;5050434;28;20052;-54
2024/01/26 02:52:09;;;;;;;21.10;9.13;;;9.60;99.90;;;;;;5050796;28;20120;-55
2024/01/26 02:54:35;;;;;;;20.97;9.70;;;9.70;99.90;;;;;;5050379;28;20124;-55
2024/01/26 02:57:01;;;;;;;22.67;9.83;;;9.90;99.90;;;;;;5050756;28;20044;-51
2024/01/26 02:59:26;;;;;;;18.93;9.03;;;9.80;99.90;;;;;;5050599;28;20037;-50
2024/01/26 03:01:52;;;;;;;19.40;8.43;;;9.80;99.90;;;;;;5050394;28;20044;-55
2024/01/26 03:04:21;;;;;;;20.77;9.23;;;9.70;99.90;;;;;;5050445;28;20470;-54
2024/01/26 03:06:47;;;;;;;16.45;7.95;;;9.70;99.90;;;;;;5050585;28;20035;-55
2024/01/26 03:09:13;;;;;;;16.97;8.00;;;9.70;99.90;;;;;;5050323;28;20028;-54
2024/01/26 03:11:39;;;;;;;19.43;8.73;;;9.70;99.90;;;;;;5050780;28;20040;-53
2024/01/26 03:14:06;;;;;;;17.60;7.80;;;9.80;99.90;;;;;;5050441;28;20128;-55
2024/01/26 03:16:33;;;;;;;17.07;8.10;;;9.80;99.90;;;;;;5050381;28;20059;-51
2024/01/26 03:18:59;;;;;;;17.50;7.10;;;9.80;99.90;;;;;;5050283;28;20032;-54
2024/01/26 03:21:25;;;;;;;14.03;7.33;;;9.80;99.90;;;;;;5050660;28;20476;-53
2024/01/26 03:23:50;;;;;;;17.33;7.23;;;9.80;99.90;;;;;;5050115;28;20507;-52
2024/01/26 03:26:16;;;;;;;15.23;7.63;;;9.80;99.90;;;;;;5050462;28;20028;-55
2024/01/26 03:28:41;;;;;;;16.30;6.87;;;9.80;99.90;;;;;;5050201;28;20080;-55
2024/01/26 03:31:07;;;;;;;18.63;7.10;;;9.90;99.90;;;;;;5049038;28;20029;-54
2024/01/26 03:33:32;;;;;;;15.83;7.23;;;9.90;99.90;;;;;;5050125;28;20482;-55
2024/01/26 03:35:58;;;;;;;14.10;7.23;;;10.00;99.90;;;;;;5050402;28;20033;-54
2024/01/26 03:38:24;;;;;;;14.07;6.80;;;10.00;99.90;;;;;;5049133;28;20094;-55
2024/01/26 03:40:49;;;;;;;14.33;6.13;;;9.90;99.90;;;;;;5050501;28;20126;-51
2024/01/26 03:43:15;;;;;;;13.30;6.20;;;10.00;99.90;;;;;;5050146;28;20056;-51
2024/01/26 03:45:40;;;;;;;15.40;7.17;;;10.00;99.90;;;;;;5050445;28;20446;-50
2024/01/26 03:48:06;;;;;;;15.63;6.33;;;9.90;99.90;;;;;;5050563;28;20037;-53
2024/01/26 03:50:33;;;;;;;12.13;6.00;;;9.90;99.90;;;;;;5050569;28;20037;-50
2024/01/26 03:52:59;;;;;;;12.20;5.83;;;9.90;99.90;;;;;;5050521;28;20033;-50
2024/01/26 03:55:24;;;;;;;13.63;6.07;;;9.90;99.90;;;;;;5050347;28;20414;-55
2024/01/26 03:57:50;;;;;;;11.90;6.00;;;9.90;99.90;;;;;;5050040;28;20029;-55
2024/01/26 04:00:16;;;;;;;13.87;6.23;;;9.90;99.90;;;;;;5050265;28;20452;-55
2024/01/26 04:02:41;;;;;;;14.60;6.70;;;10.00;99.90;;;;;;5050124;28;20037;-55
2024/01/26 04:05:08;;;;;;;13.80;6.73;;;10.00;99.90;;;;;;5050180;28;20504;-54
2024/01/26 04:07:34;;;;;;;12.87;6.40;;;9.90;99.90;;;;;;5049983;28;20044;-53
2024/01/26 04:10:00;;;;;;;10.83;5.83;;;9.90;99.90;;;;;;5050133;28;20039;-51
2024/01/26 04:12:26;;;;;;;14.97;6.30;;;9.90;99.90;;;;;;5049891;28;20466;-52
2024/01/26 04:14:51;;;;;;;12.40;5.90;;;9.90;99.90;;;;;;5053074;28;20039;-54
2024/01/26 04:17:17;;;;;;;14.67;6.77;;;9.90;99.90;;;;;;5053679;28;20055;-55
2024/01/26 04:19:42;;;;;;;12.87;5.97;;;9.90;99.90;;;;;;5053472;28;20534;-55
2024/01/26 04:22:08;;;;;;;12.03;5.60;;;10.00;99.90;;;;;;5053697;28;20037;-54
2024/01/26 04:24:34;;;;;;;12.43;5.53;;;10.00;99.90;;;;;;5053560;28;20025;-55
2024/01/26 04:27:00;;;;;;;9.43;4.97;;;10.00;99.90;;;;;;5053845;28;20048;-52
2024/01/26 04:29:26;;;;;;;10.17;5.20;;;10.00;99.90;;;;;;5053332;28;20583;-55
2024/01/26 04:31:52;;;;;;;12.13;5.13;;;10.10;99.90;;;;;;5053735;28;20366;-54
2024/01/26 04:34:18;;;;;;;12.07;4.97;;;10.10;99.90;;;;;;5053652;28;20039;-54
2024/01/26 04:36:47;;;;;;;10.50;5.00;;;10.10;99.90;;;;;;5053447;28;20376;-55
2024/01/26 04:39:14;;;;;;;8.57;4.20;;;10.10;99.90;;;;;;5054133;28;20120;-53
2024/01/26 04:41:40;;;;;;;8.93;3.73;;;10.10;99.90;;;;;;5053844;28;20338;-53
2024/01/26 04:44:06;;;;;;;12.73;4.63;;;10.10;99.90;;;;;;5053308;28;20124;-54
2024/01/26 04:46:32;;;;;;;8.23;4.30;;;10.10;99.90;;;;;;5053560;28;20021;-50
2024/01/26 04:48:57;;;;;;;9.40;4.20;;;10.10;99.90;;;;;;5053031;28;20044;-53
2024/01/26 04:51:23;;;;;;;8.80;4.00;;;10.10;99.90;;;;;;5053138;28;20025;-54
2024/01/26 04:53:48;;;;;;;8.90;3.63;;;10.10;99.90;;;;;;5052927;28;20422;-52
2024/01/26 04:56:14;;;;;;;7.50;3.80;;;10.10;99.90;;;;;;5051780;28;20029;-55
2024/01/26 04:58:40;;;;;;;8.80;4.07;;;10.10;99.90;;;;;;5052705;28;20037;-52
2024/01/26 05:01:06;;;;;;;7.33;3.67;;;10.10;99.90;;;;;;5053063;28;20039;-55
2024/01/26 05:03:32;;;;;;;8.50;3.73;;;10.10;99.90;;;;;;5052969;28;20041;-50
2024/01/26 05:05:58;;;;;;;8.03;3.90;;;10.10;99.90;;;;;;5052808;28;20083;-54
2024/01/26 05:08:23;;;;;;;8.20;3.40;;;10.20;99.90;;;;;;5052548;28;20489;-55
2024/01/26 05:10:49;;;;;;;7.20;3.80;;;10.20;99.90;;;;;;5052539;28;20064;-54
2024/01/26 05:13:15;;;;;;;9.67;3.30;;;10.20;99.90;;;;;;5052283;28;20040;-55
2024/01/26 05:15:41;;;;;;;7.00;3.27;;;10.20;99.90;;;;;;5052401;28;20100;-52
2024/01/26 05:18:08;;;;;;;5.20;2.83;;;10.20;99.90;;;;;;5052559;28;20594;-53
2024/01/26 05:20:34;;;;;;;5.97;3.27;;;10.20;99.90;;;;;;5052348;28;20029;-54
2024/01/26 05:22:59;;;;;;;7.50;3.40;;;10.30;99.90;;;;;;5052262;28;20509;-54
2024/01/26 05:25:25;;;;;;;7.27;3.33;;;10.30;99.90;;;;;;5052093;28;20044;-54
2024/01/26 05:27:50;;;;;;;7.87;3.23;;;10.30;99.90;;;;;;5052208;28;20067;-52
2024/01/26 05:30:16;;;;;;;5.37;3.13;;;10.30;99.90;;;;;;5052272;28;20120;-54
2024/01/26 05:32:43;;;;;;;5.67;2.70;;;10.40;99.90;;;;;;5052108;28;20024;-54
2024/01/26 05:35:09;;;;;;;9.43;2.93;;;10.30;99.90;;;;;;5052214;28;20025;-51
2024/01/26 05:37:35;;;;;;;5.13;2.60;;;10.40;99.90;;;;;;5051873;28;20040;-52
2024/01/26 05:40:06;;;;;;;5.40;2.40;;;10.40;99.90;;;;;;5051972;28;20029;-52
2024/01/26 05:42:32;;;;;;;5.57;2.70;;;10.30;99.90;;;;;;5052003;28;20025;-54
2024/01/26 05:44:57;;;;;;;8.97;2.70;;;10.40;99.90;;;;;;5052227;28;20029;-55
2024/01/26 05:47:23;;;;;;;4.73;2.20;;;10.40;99.90;;;;;;5051824;28;20382;-54
2024/01/26 05:49:50;;;;;;;5.57;2.40;;;10.30;99.90;;;;;;5051681;28;20136;-54
2024/01/26 05:52:16;;;;;;;5.53;2.40;;;10.20;99.90;;;;;;5051955;28;20030;-51
2024/01/26 05:54:42;;;;;;;7.30;2.60;;;10.30;99.90;;;;;;5050347;28;20031;-55
2024/01/26 05:57:08;;;;;;;5.63;2.60;;;10.30;99.90;;;;;;5051844;28;20381;-54
2024/01/26 05:59:37;;;;;;;5.00;2.07;;;10.30;99.90;;;;;;5051741;28;20527;-54
2024/01/26 06:02:03;;;;;;;5.53;2.67;;;10.30;99.90;;;;;;5051963;28;20430;-55
2024/01/26 06:04:31;;;;;;;8.00;2.67;;;10.20;99.90;;;;;;5051608;28;20037;-54
2024/01/26 06:06:57;;;;;;;4.53;2.40;;;10.30;99.90;;;;;;5051682;28;20057;-51
2024/01/26 06:09:23;;;;;;;5.83;2.60;;;10.30;99.90;;;;;;5051649;28;20035;-54
2024/01/26 06:11:48;;;;;;;5.60;2.70;;;10.30;99.90;;;;;;5051556;28;20036;-53
2024/01/26 06:14:14;;;;;;;7.33;2.57;;;10.30;99.90;;;;;;5050051;28;20520;-54
2024/01/26 06:16:39;;;;;;;4.47;2.10;;;10.30;99.90;;;;;;5051305;28;20482;-54
2024/01/26 06:19:05;;;;;;;3.70;2.30;;;10.30;99.90;;;;;;5051131;28;20076;-54
2024/01/26 06:21:30;;;;;;;5.87;2.07;;;10.30;99.90;;;;;;5051834;28;20115;-50
2024/01/26 06:23:56;;;;;;;5.93;2.37;;;10.30;99.90;;;;;;5051087;28;20431;-50
2024/01/26 06:26:23;;;;;;;7.00;2.60;;;10.30;99.90;;;;;;5051438;28;20075;-50
2024/01/26 06:28:49;;;;;;;7.53;3.00;;;10.40;99.90;;;;;;5050949;28;20059;-52
2024/01/26 06:31:14;;;;;;;4.87;2.50;;;10.40;99.90;;;;;;5051932;28;20082;-50
2024/01/26 06:33:40;;;;;;;4.20;2.10;;;10.30;99.90;;;;;;5051271;28;20032;-50
2024/01/26 06:36:06;;;;;;;12.63;5.20;;;10.30;99.90;;;;;;5051017;28;20124;-55
2024/01/26 06:38:31;;;;;;;4.03;2.53;;;10.40;99.90;;;;;;5050789;28;20037;-53
2024/01/26 06:40:59;;;;;;;4.80;2.03;;;10.40;99.90;;;;;;5051210;28;20057;-55
2024/01/26 06:43:24;;;;;;;4.33;1.50;;;10.40;99.90;;;;;;5050928;28;20041;-54
2024/01/26 06:45:50;;;;;;;4.53;2.20;;;10.40;99.90;;;;;;5051065;28;20075;-55
2024/01/26 06:48:15;;;;;;;5.97;1.93;;;10.40;99.90;;;;;;5050883;28;20032;-50
2024/01/26 06:50:41;;;;;;;5.20;2.47;;;10.40;99.90;;;;;;5049561;28;20029;-50
2024/01/26 06:53:09;;;;;;;3.97;1.97;;;10.40;99.90;;;;;;5050489;28;20115;-54
2024/01/26 06:55:34;;;;;;;6.43;1.90;;;10.40;99.90;;;;;;5051079;28;20412;-55
2024/01/26 06:58:00;;;;;;;4.90;1.77;;;10.30;99.90;;;;;;5050425;28;20036;-55
2024/01/26 07:00:25;;;;;;;3.97;2.10;;;10.30;99.90;;;;;;5050735;28;20036;-53
2024/01/26 07:02:51;;;;;;;3.77;2.00;;;10.30;99.90;;;;;;5050413;28;20094;-53
2024/01/26 07:05:17;;;;;;;4.57;1.83;;;10.20;99.90;;;;;;5050554;28;20119;-54
2024/01/26 07:07:42;;;;;;;4.33;1.83;;;10.20;99.90;;;;;;5050612;28;20072;-54
2024/01/26 07:10:08;;;;;;;5.87;1.70;;;10.10;99.90;;;;;;5050576;28;20029;-55
2024/01/26 07:12:34;;;;;;;5.10;1.70;;;10.10;99.90;;;;;;5050643;28;20025;-55
2024/01/26 07:14:59;;;;;;;4.53;1.83;;;10.10;99.90;;;;;;5050565;28;20021;-55
2024/01/26 07:17:25;;;;;;;4.77;1.70;;;10.10;99.90;;;;;;5050484;28;20115;-55
2024/01/26 07:19:50;;;;;;;2.43;1.40;;;10.10;99.90;;;;;;5050312;28;20366;-51
2024/01/26 07:22:16;;;;;;;5.37;1.67;;;10.10;99.90;;;;;;5050514;28;20377;-54
2024/01/26 07:24:42;;;;;;;4.93;1.50;;;10.10;99.90;;;;;;5050151;28;20044;-51
2024/01/26 07:27:07;;;;;;;5.00;1.80;;;10.10;99.90;;;;;;5050380;28;20040;-52
2024/01/26 07:29:33;;;;;;;4.97;1.80;;;10.10;99.90;;;;;;5050183;28;20136;-54
2024/01/26 07:31:58;;;;;;;5.40;1.90;;;10.10;99.90;;;;;;5049037;28;20048;-54
2024/01/26 07:34:24;;;;;;;3.83;1.90;;;10.00;99.90;;;;;;5050273;28;20134;-55
2024/01/26 07:36:49;;;;;;;3.80;1.90;;;10.00;99.90;;;;;;5050257;28;20025;-51
2024/01/26 07:39:15;;;;;;;4.90;1.73;;;9.90;99.90;;;;;;5050317;28;20039;-55
2024/01/26 07:41:41;;;;;;;4.20;1.97;;;9.90;99.90;;;;;;5050596;28;20460;-54
2024/01/26 07:44:07;;;;;;;3.90;1.90;;;9.80;99.90;;;;;;5050609;28;20059;-54
2024/01/26 07:46:32;;;;;;;5.30;1.67;;;9.80;99.90;;;;;;5050571;28;20040;-52
2024/01/26 07:49:00;;;;;;;6.57;2.73;;;9.70;99.90;;;;;;5052088;28;20040;-53
2024/01/26 07:51:26;;;;;;;4.07;2.13;;;9.70;99.90;;;;;;5054454;28;20408;-53
2024/01/26 07:53:52;;;;;;;6.17;2.27;;;9.70;99.90;;;;;;5054178;28;20047;-53
2024/01/26 07:56:18;;;;;;;3.30;1.80;;;9.70;99.90;;;;;;5054428;28;20025;-52
2024/01/26 07:58:43;;;;;;;4.53;2.13;;;9.70;99.90;;;;;;5054122;28;20086;-55
2024/01/26 08:01:11;;;;;;;5.30;2.37;;;9.70;99.90;;;;;;5054297;28;20029;-52
2024/01/26 08:03:37;;;;;;;5.80;2.43;;;9.60;99.90;;;;;;5053939;28;20040;-53
2024/01/26 08:06:02;;;;;;;4.93;2.50;;;9.60;99.90;;;;;;5053674;28;20033;-52
2024/01/26 08:08:28;;;;;;;5.70;2.60;;;9.60;99.90;;;;;;5054105;28;20029;-56
2024/01/26 08:10:54;;;;;;;8.27;2.90;;;9.60;99.90;;;;;;5054537;28;20071;-55
2024/01/26 08:13:19;;;;;;;5.53;2.60;;;9.60;99.90;;;;;;5053758;28;20025;-55
2024/01/26 08:15:46;;;;;;;5.93;2.40;;;9.60;99.90;;;;;;5053831;28;20124;-54
2024/01/26 08:18:11;;;;;;;4.40;2.00;;;9.60;99.90;;;;;;5053477;28;20087;-55
2024/01/26 08:20:37;;;;;;;5.03;2.20;;;9.60;99.90;;;;;;5053798;28;20059;-56
2024/01/26 08:23:03;;;;;;;5.80;2.60;;;9.60;99.90;;;;;;5053582;28;20408;-55
2024/01/26 08:25:28;;;;;;;5.20;2.60;;;9.60;99.90;;;;;;5053651;28;20071;-54
2024/01/26 08:27:54;;;;;;;7.70;2.90;;;9.60;99.90;;;;;;5053453;28;20029;-54
2024/01/26 08:30:22;;;;;;;4.70;2.23;;;9.60;99.90;;;;;;5053655;28;20040;-53
2024/01/26 08:32:49;;;;;;;6.40;2.83;;;9.60;99.90;;;;;;5053218;28;20063;-51
2024/01/26 08:35:14;;;;;;;6.87;3.23;;;9.60;99.90;;;;;;5053331;28;20047;-55
2024/01/26 08:37:40;;;;;;;5.57;2.80;;;9.70;99.90;;;;;;5053507;28;20033;-51
2024/01/26 08:40:06;;;;;;;5.83;2.67;;;9.70;99.90;;;;;;5053246;28;20116;-55
2024/01/26 08:42:33;;;;;;;7.00;3.10;;;9.60;99.90;;;;;;5047978;28;20029;-51
2024/01/26 08:44:59;;;;;;;9.13;3.00;;;9.60;99.90;;;;;;5049815;28;20025;-54
2024/01/26 08:47:24;;;;;;;7.63;3.00;;;9.60;99.90;;;;;;5049633;28;20033;-52
2024/01/26 08:49:50;;;;;;;10.70;3.37;;;9.70;99.90;;;;;;5049412;28;20036;-51
2024/01/26 08:52:16;;;;;;;6.73;3.20;;;9.70;99.90;;;;;;5046536;28;20049;-55
2024/01/26 08:54:41;;;;;;;9.23;4.10;;;9.80;99.90;;;;;;5049240;28;20037;-53
2024/01/26 08:57:07;;;;;;;8.00;3.73;;;9.80;99.90;;;;;;5045430;28;20048;-53
2024/01/26 08:59:32;;;;;;;11.90;4.70;;;10.00;99.90;;;;;;5048465;28;20108;-53
2024/01/26 09:01:58;;;;;;;10.87;5.30;;;10.20;99.90;;;;;;5049005;28;20478;-55
2024/01/26 09:04:23;;;;;;;9.50;4.33;;;10.40;99.90;;;;;;5050455;28;20152;-51
2024/01/26 09:06:49;;;;;;;11.90;5.00;;;10.40;99.90;;;;;;5052266;28;20032;-52
2024/01/26 09:09:15;;;;;;;10.40;4.17;;;10.50;99.90;;;;;;5051525;28;20103;-56
2024/01/26 09:11:41;;;;;;;8.77;3.97;;;10.60;99.90;;;;;;5052237;28;20029;-54
2024/01/26 09:14:06;;;;;;;9.83;3.97;;;10.70;99.90;;;;;;5051839;28;20064;-56
2024/01/26 09:16:32;;;;;;;10.23;3.70;;;10.60;99.90;;;;;;5051943;28;20057;-55
2024/01/26 09:18:58;;;;;;;8.40;3.77;;;10.70;99.90;;;;;;5051628;28;20033;-55
2024/01/26 09:21:24;;;;;;;7.40;3.70;;;10.60;99.90;;;;;;5052093;28;20033;-55
2024/01/26 09:23:49;;;;;;;7.90;3.63;;;10.60;99.90;;;;;;5051598;28;20048;-54
2024/01/26 09:26:15;;;;;;;8.40;3.73;;;10.70;99.90;;;;;;5051696;28;20043;-55
2024/01/26 09:28:40;;;;;;;5.70;3.63;;;10.80;99.90;;;;;;5051586;28;20371;-54
2024/01/26 09:31:06;;;;;;;6.50;3.60;;;10.80;99.90;;;;;;5051815;28;20106;-55
2024/01/26 09:33:33;;;;;;;7.23;3.47;;;10.80;99.90;;;;;;5050853;28;20025;-55
2024/01/26 09:35:58;;;;;;;8.03;3.90;;;10.90;99.90;;;;;;5047267;28;20037;-55
2024/01/26 09:38:24;;;;;;;5.90;3.13;;;10.90;99.90;;;;;;5048540;28;20094;-52
2024/01/26 09:40:50;;;;;;;6.43;3.43;;;10.90;99.90;;;;;;5048921;28;20034;-51
2024/01/26 09:43:16;;;;;;;7.30;3.27;;;11.00;99.90;;;;;;5048031;28;20067;-53
2024/01/26 09:45:43;;;;;;;6.27;2.97;;;11.00;99.90;;;;;;5048691;28;20067;-55
2024/01/26 09:48:09;;;;;;;7.13;3.57;;;11.00;99.90;;;;;;5047824;28;20083;-55
2024/01/26 09:50:35;;;;;;;6.73;3.33;;;11.00;99.90;;;;;;5050546;28;20025;-56
2024/01/26 09:53:05;;;;;;;6.13;3.00;;;11.00;99.90;;;;;;5051705;28;20366;-56
2024/01/26 09:55:33;;;;;;;5.30;2.63;;;11.10;99.90;;;;;;5051267;28;20071;-55
2024/01/26 09:57:59;;;;;;;5.17;2.90;;;11.10;99.90;;;;;;5050707;28;20397;-55
2024/01/26 10:00:26;;;;;;;6.23;3.17;;;11.10;99.90;;;;;;5047011;28;20456;-52
2024/01/26 10:02:52;;;;;;;6.90;3.17;;;11.20;99.90;;;;;;5045810;28;20033;-50
2024/01/26 10:05:18;;;;;;;5.87;2.70;;;11.10;99.90;;;;;;5048972;28;20132;-51
2024/01/26 10:07:45;;;;;;;4.93;2.67;;;11.20;99.90;;;;;;5048306;28;20033;-50
2024/01/26 10:10:11;;;;;;;5.10;2.63;;;11.20;99.90;;;;;;5049402;28;20032;-53
2024/01/26 10:12:38;;;;;;;5.33;2.90;;;11.20;99.90;;;;;;5047983;28;20052;-51
2024/01/26 10:15:05;;;;;;;5.93;3.10;;;11.20;99.90;;;;;;5046898;28;20509;-55
2024/01/26 10:17:31;;;;;;;7.17;2.97;;;11.20;99.90;;;;;;5047641;28;20478;-55
2024/01/26 10:20:14;;;;;;;6.73;3.53;;;11.20;99.90;;;;;;5047786;28;20100;-55
2024/01/26 10:22:44;;;;;;;7.43;3.47;;;11.20;99.90;;;;;;5046906;28;20370;-55
2024/01/26 10:25:10;;;;;;;9.10;3.90;;;11.10;99.90;;;;;;5051005;28;20036;-56
2024/01/26 10:27:36;;;;;;;7.37;3.70;;;11.10;99.90;;;;;;5050230;28;20051;-55
2024/01/26 10:30:03;;;;;;;7.30;3.97;;;11.10;99.90;;;;;;5045745;28;20115;-52
2024/01/26 10:32:30;;;;;;;6.60;3.77;;;11.20;99.90;;;;;;5045306;28;20033;-53
2024/01/26 10:35:00;;;;;;;10.87;4.23;;;11.20;99.90;;;;;;5047067;28;20036;-54
2024/01/26 10:37:27;;;;;;;6.40;3.57;;;11.10;99.90;;;;;;5047421;28;20435;-56
2024/01/26 10:39:57;;;;;;;4.27;2.40;;;11.00;99.90;;;;;;5048241;28;20021;-51
2024/01/26 10:42:24;;;;;;;4.70;1.93;;;11.00;99.90;;;;;;5047517;28;20650;-54
2024/01/26 10:44:52;;;;;;;5.60;2.00;;;10.90;99.90;;;;;;5048475;28;20071;-56
2024/01/26 10:47:18;;;;;;;4.63;2.10;;;10.80;99.90;;;;;;5047238;28;20029;-55
2024/01/26 10:49:49;;;;;;;3.60;2.00;;;10.80;99.90;;;;;;5049417;28;20021;-56
2024/01/26 10:52:21;;;;;;;5.07;1.60;;;10.80;99.90;;;;;;5047463;28;20037;-54
2024/01/26 10:54:48;;;;;;;3.47;1.50;;;10.70;99.90;;;;;;5047219;28;20067;-53
2024/01/26 10:57:15;;;;;;;2.30;0.70;;;10.50;99.90;;;;;;5047458;28;20052;-55
2024/01/26 10:59:43;;;;;;;5.63;1.17;;;10.20;99.90;;;;;;5045023;28;20025;-56
2024/01/26 11:02:27;;;;;;;1.40;0.70;;;10.00;99.90;;;;;;5046267;28;20033;-54
2024/01/26 11:04:53;;;;;;;3.17;0.60;;;9.70;99.90;;;;;;5045288;28;20021;-53
2024/01/26 11:07:20;;;;;;;2.73;0.80;;;9.70;99.90;;;;;;5046522;28;20025;-54
2024/01/26 11:09:46;;;;;;;3.53;1.17;;;9.60;99.90;;;;;;5046484;28;20786;-52
2024/01/26 11:12:22;;;;;;;3.73;0.80;;;9.50;99.90;;;;;;5047488;28;20036;-51
2024/01/26 11:15:09;;;;;;;1.43;0.60;;;9.40;99.90;;;;;;5046806;28;20507;-56
2024/01/26 11:17:49;;;;;;;4.10;0.90;;;9.40;99.90;;;;;;5044614;28;20565;-55
2024/01/26 11:20:19;;;;;;;4.03;0.83;;;9.40;99.90;;;;;;5057064;28;20036;-51
2024/01/26 11:22:45;;;;;;;3.50;0.93;;;9.30;99.90;;;;;;5059029;28;20079;-55
2024/01/26 11:25:35;;;;;;;3.70;1.00;;;9.30;99.90;;;;;;5063378;28;20037;-55
2024/01/26 11:28:03;;;;;;;4.60;0.70;;;9.40;99.90;;;;;;5047953;28;20052;-55
2024/01/26 11:30:29;;;;;;;6.93;0.85;;;9.50;99.90;;;;;;5053057;28;20139;-54
2024/01/26 11:32:56;;;;;;;5.67;1.20;;;9.80;99.90;;;;;;5052751;28;20493;-55
2024/01/26 11:35:22;;;;;;;3.50;1.03;;;10.40;99.90;;;;;;5053809;28;20090;-52
2024/01/26 11:37:50;;;;;;;4.27;0.83;;;11.00;99.90;;;;;;5052240;28;20087;-53
2024/01/26 11:40:20;;;;;;;3.93;0.93;;;11.90;99.90;;;;;;5053734;28;20037;-53
2024/01/26 11:42:47;;;;;;;5.45;1.75;;;12.60;99.90;;;;;;5051681;28;20190;-53
2024/01/26 11:45:30;;;;;;;2.08;0.68;;;13.00;99.90;;;;;;5051940;28;20508;-56
2024/01/26 11:47:56;;;;;;;5.60;0.93;;;13.70;99.90;;;;;;5051510;28;20762;-54
2024/01/26 11:50:22;;;;;;;2.80;0.55;;;14.70;99.90;;;;;;5050556;28;20136;-52
2024/01/26 11:52:48;;;;;;;3.97;0.60;;;15.50;99.90;;;;;;5051500;28;20556;-56
2024/01/26 11:55:13;;;;;;;3.42;0.73;;;15.50;99.90;;;;;;5051615;28;20052;-55
2024/01/26 11:57:39;;;;;;;1.58;0.50;;;15.00;99.90;;;;;;5051733;28;20120;-51
2024/01/26 12:00:06;;;;;;;1.38;0.43;;;14.50;99.90;;;;;;5054606;28;20028;-56
2024/01/26 12:02:32;;;;;;;1.63;0.45;;;14.20;99.90;;;;;;5050327;28;20037;-56
2024/01/26 12:04:58;;;;;;;4.32;0.50;;;14.30;99.90;;;;;;5053829;28;20457;-55
2024/01/26 12:07:23;;;;;;;2.88;0.50;;;15.20;99.90;;;;;;5051229;28;20024;-55
2024/01/26 12:09:49;;;;;;;1.70;0.43;;;16.20;99.90;;;;;;5051194;28;20108;-52
2024/01/26 12:12:15;;;;;;;2.20;0.60;;;17.00;99.00;;;;;;5051582;28;20017;-55
2024/01/26 12:14:41;;;;;;;1.92;0.63;;;17.30;96.70;;;;;;5050954;28;20395;-54
2024/01/26 12:17:07;;;;;;;3.15;0.77;;;17.50;95.20;;;;;;5051464;28;20083;-55
2024/01/26 12:19:32;;;;;;;1.42;0.47;;;17.50;93.60;;;;;;5051371;28;20192;-53
2024/01/26 12:21:58;;;;;;;5.35;0.60;;;16.80;93.40;;;;;;5050433;28;20040;-56
2024/01/26 12:24:24;;;;;;;2.17;0.70;;;15.60;95.70;;;;;;5051020;28;20041;-56
2024/01/26 12:26:50;;;;;;;4.15;1.10;;;14.60;98.70;;;;;;5050855;28;20091;-54
2024/01/26 12:29:16;;;;;;;4.15;0.63;;;14.40;99.30;;;;;;5051004;28;20505;-55
2024/01/26 12:31:42;;;;;;;4.03;0.50;;;15.20;98.00;;;;;;5054476;28;20067;-55
2024/01/26 12:34:12;;;;;;;3.33;0.73;;;16.30;95.00;;;;;;5049909;28;20029;-53
2024/01/26 12:36:37;;;;;;;4.57;1.15;;;17.20;93.60;;;;;;5054356;28;20032;-55
2024/01/26 12:39:03;;;;;;;3.50;0.50;;;17.50;92.30;;;;;;5049473;28;20036;-55
2024/01/26 12:41:29;;;;;;;4.30;0.98;;;17.80;91.20;;;;;;5051883;28;20036;-51
2024/01/26 12:43:56;;;;;;;4.43;0.57;;;18.30;90.80;;;;;;5050669;28;20036;-52